sensor_id;sensor_type;location;lat;lon;timestamp;temperature;humidity
51811;DHT22;52468;40.116;18.296;2023-01-24T00:01:19;6.60;80.10
51811;DHT22;52468;40.116;18.296;2023-01-24T00:03:46;6.60;80.20
51811;DHT22;52468;40.116;18.296;2023-01-24T00:06:15;6.60;80.30
51811;DHT22;52468;40.116;18.296;2023-01-24T00:08:43;6.60;80.10
51811;DHT22;52468;40.116;18.296;2023-01-24T00:11:11;6.60;79.70
51811;DHT22;52468;40.116;18.296;2023-01-24T00:13:40;6.60;79.50
51811;DHT22;52468;40.116;18.296;2023-01-24T00:16:17;6.50;79.50
51811;DHT22;52468;40.116;18.296;2023-01-24T00:18:46;6.50;79.70
51811;DHT22;52468;40.116;18.296;2023-01-24T00:21:20;6.50;79.70
51811;DHT22;52468;40.116;18.296;2023-01-24T00:23:51;6.50;79.60
51811;DHT22;52468;40.116;18.296;2023-01-24T00:26:20;6.50;79.60
51811;DHT22;52468;40.116;18.296;2023-01-24T00:28:49;6.50;79.80
51811;DHT22;52468;40.116;18.296;2023-01-24T00:31:17;6.40;79.80
51811;DHT22;52468;40.116;18.296;2023-01-24T00:33:45;6.40;79.80
51811;DHT22;52468;40.116;18.296;2023-01-24T00:36:13;6.50;79.90
51811;DHT22;52468;40.116;18.296;2023-01-24T00:38:41;6.40;79.80
51811;DHT22;52468;40.116;18.296;2023-01-24T00:41:09;6.40;79.90
51811;DHT22;52468;40.116;18.296;2023-01-24T00:43:37;6.30;80.00
51811;DHT22;52468;40.116;18.296;2023-01-24T00:46:06;6.30;80.40
51811;DHT22;52468;40.116;18.296;2023-01-24T00:48:35;6.30;80.50
51811;DHT22;52468;40.116;18.296;2023-01-24T00:51:03;6.20;80.70
51811;DHT22;52468;40.116;18.296;2023-01-24T00:53:31;6.20;81.00
51811;DHT22;52468;40.116;18.296;2023-01-24T00:55:58;6.20;81.10
51811;DHT22;52468;40.116;18.296;2023-01-24T00:58:26;6.20;81.10
51811;DHT22;52468;40.116;18.296;2023-01-24T01:00:55;6.20;81.00
51811;DHT22;52468;40.116;18.296;2023-01-24T01:03:24;6.20;80.90
51811;DHT22;52468;40.116;18.296;2023-01-24T01:06:05;6.20;80.90
51811;DHT22;52468;40.116;18.296;2023-01-24T01:08:33;6.20;80.90
51811;DHT22;52468;40.116;18.296;2023-01-24T01:11:01;6.20;81.00
51811;DHT22;52468;40.116;18.296;2023-01-24T01:13:29;6.30;80.70
51811;DHT22;52468;40.116;18.296;2023-01-24T01:16:12;6.30;80.70
51811;DHT22;52468;40.116;18.296;2023-01-24T01:18:40;6.20;80.60
51811;DHT22;52468;40.116;18.296;2023-01-24T01:21:14;6.20;80.60
51811;DHT22;52468;40.116;18.296;2023-01-24T01:23:42;6.20;80.60
51811;DHT22;52468;40.116;18.296;2023-01-24T01:26:16;6.30;80.60
51811;DHT22;52468;40.116;18.296;2023-01-24T01:28:44;6.30;80.40
51811;DHT22;52468;40.116;18.296;2023-01-24T01:31:14;6.20;80.70
51811;DHT22;52468;40.116;18.296;2023-01-24T01:33:43;6.20;80.80
51811;DHT22;52468;40.116;18.296;2023-01-24T01:36:11;6.30;80.60
51811;DHT22;52468;40.116;18.296;2023-01-24T01:38:39;6.30;80.30
51811;DHT22;52468;40.116;18.296;2023-01-24T01:41:07;6.30;80.50
51811;DHT22;52468;40.116;18.296;2023-01-24T01:43:35;6.20;80.70
51811;DHT22;52468;40.116;18.296;2023-01-24T01:46:19;6.20;80.80
51811;DHT22;52468;40.116;18.296;2023-01-24T01:48:51;6.30;80.90
51811;DHT22;52468;40.116;18.296;2023-01-24T01:51:43;6.30;80.80
51811;DHT22;52468;40.116;18.296;2023-01-24T01:54:19;6.30;80.40
51811;DHT22;52468;40.116;18.296;2023-01-24T01:57:05;6.20;80.50
51811;DHT22;52468;40.116;18.296;2023-01-24T01:59:58;6.10;80.50
51811;DHT22;52468;40.116;18.296;2023-01-24T02:02:27;6.10;80.80
51811;DHT22;52468;40.116;18.296;2023-01-24T02:04:59;6.10;81.00
51811;DHT22;52468;40.116;18.296;2023-01-24T02:07:34;6.10;81.20
51811;DHT22;52468;40.116;18.296;2023-01-24T02:10:04;6.10;81.30
51811;DHT22;52468;40.116;18.296;2023-01-24T02:12:44;6.10;81.60
51811;DHT22;52468;40.116;18.296;2023-01-24T02:15:17;6.10;81.30
51811;DHT22;52468;40.116;18.296;2023-01-24T02:18:04;6.10;81.40
51811;DHT22;52468;40.116;18.296;2023-01-24T02:20:42;6.10;81.40
51811;DHT22;52468;40.116;18.296;2023-01-24T02:26:21;6.20;81.40
51811;DHT22;52468;40.116;18.296;2023-01-24T02:29:02;6.20;81.10
51811;DHT22;52468;40.116;18.296;2023-01-24T02:31:55;6.10;80.60
51811;DHT22;52468;40.116;18.296;2023-01-24T02:34:24;6.10;80.60
51811;DHT22;52468;40.116;18.296;2023-01-24T02:36:55;6.10;80.80
51811;DHT22;52468;40.116;18.296;2023-01-24T02:39:29;6.00;81.00
51811;DHT22;52468;40.116;18.296;2023-01-24T02:42:03;6.00;80.80
51811;DHT22;52468;40.116;18.296;2023-01-24T02:47:31;6.00;81.10
51811;DHT22;52468;40.116;18.296;2023-01-24T02:50:01;6.00;81.40
51811;DHT22;52468;40.116;18.296;2023-01-24T02:52:29;6.00;81.70
51811;DHT22;52468;40.116;18.296;2023-01-24T02:55:15;6.00;81.90
51811;DHT22;52468;40.116;18.296;2023-01-24T02:57:43;6.00;81.90
51811;DHT22;52468;40.116;18.296;2023-01-24T03:00:31;6.00;81.80
51811;DHT22;52468;40.116;18.296;2023-01-24T03:03:01;5.90;82.00
51811;DHT22;52468;40.116;18.296;2023-01-24T03:05:30;5.90;82.00
51811;DHT22;52468;40.116;18.296;2023-01-24T03:08:13;5.90;81.90
51811;DHT22;52468;40.116;18.296;2023-01-24T03:10:41;5.90;82.00
51811;DHT22;52468;40.116;18.296;2023-01-24T03:13:09;6.00;81.90
51811;DHT22;52468;40.116;18.296;2023-01-24T03:15:55;5.90;82.00
51811;DHT22;52468;40.116;18.296;2023-01-24T03:18:44;5.90;82.00
51811;DHT22;52468;40.116;18.296;2023-01-24T03:21:31;5.90;82.00
51811;DHT22;52468;40.116;18.296;2023-01-24T03:24:17;5.90;81.90
51811;DHT22;52468;40.116;18.296;2023-01-24T03:27:04;5.90;81.60
51811;DHT22;52468;40.116;18.296;2023-01-24T03:29:50;5.90;81.20
51811;DHT22;52468;40.116;18.296;2023-01-24T03:32:36;5.90;81.40
51811;DHT22;52468;40.116;18.296;2023-01-24T03:35:23;5.80;81.90
51811;DHT22;52468;40.116;18.296;2023-01-24T03:37:51;5.80;82.60
51811;DHT22;52468;40.116;18.296;2023-01-24T03:40:37;5.80;82.30
51811;DHT22;52468;40.116;18.296;2023-01-24T03:43:05;5.80;82.40
51811;DHT22;52468;40.116;18.296;2023-01-24T03:45:38;5.80;82.30
51811;DHT22;52468;40.116;18.296;2023-01-24T03:48:11;5.90;81.70
51811;DHT22;52468;40.116;18.296;2023-01-24T03:50:43;5.80;81.20
51811;DHT22;52468;40.116;18.296;2023-01-24T03:53:34;5.80;81.10
51811;DHT22;52468;40.116;18.296;2023-01-24T03:56:03;5.80;81.00
51811;DHT22;52468;40.116;18.296;2023-01-24T03:58:39;5.80;81.30
51811;DHT22;52468;40.116;18.296;2023-01-24T04:01:10;5.70;81.50
51811;DHT22;52468;40.116;18.296;2023-01-24T04:04:01;5.70;81.80
51811;DHT22;52468;40.116;18.296;2023-01-24T04:06:29;5.70;82.00
51811;DHT22;52468;40.116;18.296;2023-01-24T04:08:58;5.70;82.00
51811;DHT22;52468;40.116;18.296;2023-01-24T04:11:26;5.80;82.20
51811;DHT22;52468;40.116;18.296;2023-01-24T04:14:00;5.70;81.70
51811;DHT22;52468;40.116;18.296;2023-01-24T04:16:28;5.70;81.40
51811;DHT22;52468;40.116;18.296;2023-01-24T04:19:22;5.60;81.50
51811;DHT22;52468;40.116;18.296;2023-01-24T04:21:50;5.60;82.00
51811;DHT22;52468;40.116;18.296;2023-01-24T04:24:18;5.60;82.10
51811;DHT22;52468;40.116;18.296;2023-01-24T04:26:46;5.60;81.60
51811;DHT22;52468;40.116;18.296;2023-01-24T04:29:19;5.60;81.80
51811;DHT22;52468;40.116;18.296;2023-01-24T04:31:50;5.50;81.90
51811;DHT22;52468;40.116;18.296;2023-01-24T04:34:30;5.50;82.20
51811;DHT22;52468;40.116;18.296;2023-01-24T04:36:59;5.50;82.50
51811;DHT22;52468;40.116;18.296;2023-01-24T04:39:27;5.60;82.80
51811;DHT22;52468;40.116;18.296;2023-01-24T04:42:07;5.60;82.70
51811;DHT22;52468;40.116;18.296;2023-01-24T04:44:37;5.60;82.60
51811;DHT22;52468;40.116;18.296;2023-01-24T04:47:06;5.60;82.40
51811;DHT22;52468;40.116;18.296;2023-01-24T04:49:34;5.60;82.30
51811;DHT22;52468;40.116;18.296;2023-01-24T04:52:03;5.60;82.20
51811;DHT22;52468;40.116;18.296;2023-01-24T04:54:44;5.60;82.20
51811;DHT22;52468;40.116;18.296;2023-01-24T04:57:12;5.60;81.50
51811;DHT22;52468;40.116;18.296;2023-01-24T04:59:42;5.60;81.60
51811;DHT22;52468;40.116;18.296;2023-01-24T05:02:11;5.60;81.40
51811;DHT22;52468;40.116;18.296;2023-01-24T05:04:43;5.50;81.50
51811;DHT22;52468;40.116;18.296;2023-01-24T05:07:12;5.60;81.30
51811;DHT22;52468;40.116;18.296;2023-01-24T05:09:44;5.50;81.40
51811;DHT22;52468;40.116;18.296;2023-01-24T05:12:12;5.50;81.70
51811;DHT22;52468;40.116;18.296;2023-01-24T05:14:40;5.50;81.90
51811;DHT22;52468;40.116;18.296;2023-01-24T05:17:09;5.40;82.00
51811;DHT22;52468;40.116;18.296;2023-01-24T05:19:37;5.50;82.40
51811;DHT22;52468;40.116;18.296;2023-01-24T05:22:06;5.50;82.70
51811;DHT22;52468;40.116;18.296;2023-01-24T05:24:38;5.50;82.80
51811;DHT22;52468;40.116;18.296;2023-01-24T05:27:06;5.40;82.70
51811;DHT22;52468;40.116;18.296;2023-01-24T05:29:39;5.50;82.40
51811;DHT22;52468;40.116;18.296;2023-01-24T05:32:07;5.40;82.10
51811;DHT22;52468;40.116;18.296;2023-01-24T05:34:36;5.40;82.30
51811;DHT22;52468;40.116;18.296;2023-01-24T05:37:06;5.30;82.30
51811;DHT22;52468;40.116;18.296;2023-01-24T05:39:36;5.20;81.80
51811;DHT22;52468;40.116;18.296;2023-01-24T05:42:04;5.20;81.50
51811;DHT22;52468;40.116;18.296;2023-01-24T05:44:40;5.20;81.30
51811;DHT22;52468;40.116;18.296;2023-01-24T05:47:08;5.10;81.10
51811;DHT22;52468;40.116;18.296;2023-01-24T05:49:39;5.10;81.30
51811;DHT22;52468;40.116;18.296;2023-01-24T05:52:07;5.10;81.30
51811;DHT22;52468;40.116;18.296;2023-01-24T05:54:51;5.10;81.40
51811;DHT22;52468;40.116;18.296;2023-01-24T05:57:27;5.00;81.60
51811;DHT22;52468;40.116;18.296;2023-01-24T06:00:27;5.00;81.20
51811;DHT22;52468;40.116;18.296;2023-01-24T06:03:26;5.00;81.20
51811;DHT22;52468;40.116;18.296;2023-01-24T06:05:55;4.90;81.10
51811;DHT22;52468;40.116;18.296;2023-01-24T06:08:27;5.00;81.10
51811;DHT22;52468;40.116;18.296;2023-01-24T06:11:00;4.90;81.10
51811;DHT22;52468;40.116;18.296;2023-01-24T06:13:28;4.90;81.30
51811;DHT22;52468;40.116;18.296;2023-01-24T06:16:17;4.90;81.40
51811;DHT22;52468;40.116;18.296;2023-01-24T06:18:47;4.80;81.30
51811;DHT22;52468;40.116;18.296;2023-01-24T06:21:47;4.70;81.60
51811;DHT22;52468;40.116;18.296;2023-01-24T06:24:21;4.80;81.80
51811;DHT22;52468;40.116;18.296;2023-01-24T06:27:08;4.80;82.10
51811;DHT22;52468;40.116;18.296;2023-01-24T06:29:36;4.90;81.80
51811;DHT22;52468;40.116;18.296;2023-01-24T06:37:55;5.00;82.30
51811;DHT22;52468;40.116;18.296;2023-01-24T06:40:22;5.10;82.40
51811;DHT22;52468;40.116;18.296;2023-01-24T06:42:51;5.20;82.20
51811;DHT22;52468;40.116;18.296;2023-01-24T06:45:22;5.30;82.30
51811;DHT22;52468;40.116;18.296;2023-01-24T06:47:50;5.40;83.20
51811;DHT22;52468;40.116;18.296;2023-01-24T06:50:20;5.80;83.10
51811;DHT22;52468;40.116;18.296;2023-01-24T06:52:49;6.10;82.80
51811;DHT22;52468;40.116;18.296;2023-01-24T06:55:17;6.40;82.70
51811;DHT22;52468;40.116;18.296;2023-01-24T06:57:45;6.60;82.20
51811;DHT22;52468;40.116;18.296;2023-01-24T07:00:18;7.10;81.80
51811;DHT22;52468;40.116;18.296;2023-01-24T07:02:46;7.10;81.80
51811;DHT22;52468;40.116;18.296;2023-01-24T07:05:14;7.30;81.40
51811;DHT22;52468;40.116;18.296;2023-01-24T07:07:41;7.50;81.30
51811;DHT22;52468;40.116;18.296;2023-01-24T07:10:10;7.60;81.30
51811;DHT22;52468;40.116;18.296;2023-01-24T07:12:37;7.80;81.30
51811;DHT22;52468;40.116;18.296;2023-01-24T07:15:06;8.00;81.60
51811;DHT22;52468;40.116;18.296;2023-01-24T07:17:34;8.10;81.50
51811;DHT22;52468;40.116;18.296;2023-01-24T07:20:02;8.40;81.60
51811;DHT22;52468;40.116;18.296;2023-01-24T07:22:31;8.60;81.50
51811;DHT22;52468;40.116;18.296;2023-01-24T07:25:00;8.80;81.20
51811;DHT22;52468;40.116;18.296;2023-01-24T07:27:29;9.10;80.90
51811;DHT22;52468;40.116;18.296;2023-01-24T07:29:57;9.20;80.60
51811;DHT22;52468;40.116;18.296;2023-01-24T07:32:24;9.40;80.60
51811;DHT22;52468;40.116;18.296;2023-01-24T07:34:52;9.60;80.40
51811;DHT22;52468;40.116;18.296;2023-01-24T07:37:20;9.70;80.20
51811;DHT22;52468;40.116;18.296;2023-01-24T07:39:50;9.80;80.20
51811;DHT22;52468;40.116;18.296;2023-01-24T07:42:18;10.00;80.00
51811;DHT22;52468;40.116;18.296;2023-01-24T07:44:46;10.10;80.00
51811;DHT22;52468;40.116;18.296;2023-01-24T07:47:13;10.20;79.70
51811;DHT22;52468;40.116;18.296;2023-01-24T07:49:42;10.40;79.80
51811;DHT22;52468;40.116;18.296;2023-01-24T07:52:11;10.50;79.60
51811;DHT22;52468;40.116;18.296;2023-01-24T07:54:39;10.60;79.70
51811;DHT22;52468;40.116;18.296;2023-01-24T07:57:07;10.80;79.70
51811;DHT22;52468;40.116;18.296;2023-01-24T07:59:35;10.90;79.70
51811;DHT22;52468;40.116;18.296;2023-01-24T08:02:05;11.00;79.50
51811;DHT22;52468;40.116;18.296;2023-01-24T08:04:33;11.20;78.30
51811;DHT22;52468;40.116;18.296;2023-01-24T08:07:02;11.20;78.90
51811;DHT22;52468;40.116;18.296;2023-01-24T08:09:46;11.40;79.50
51811;DHT22;52468;40.116;18.296;2023-01-24T08:12:14;11.50;78.50
51811;DHT22;52468;40.116;18.296;2023-01-24T08:14:42;11.60;78.50
51811;DHT22;52468;40.116;18.296;2023-01-24T08:17:10;11.70;77.90
51811;DHT22;52468;40.116;18.296;2023-01-24T08:19:38;11.90;78.30
51811;DHT22;52468;40.116;18.296;2023-01-24T08:22:22;12.00;77.90
51811;DHT22;52468;40.116;18.296;2023-01-24T08:24:49;12.20;76.90
51811;DHT22;52468;40.116;18.296;2023-01-24T08:27:17;12.30;76.60
51811;DHT22;52468;40.116;18.296;2023-01-24T08:29:45;12.30;77.20
51811;DHT22;52468;40.116;18.296;2023-01-24T08:32:13;12.40;77.30
51811;DHT22;52468;40.116;18.296;2023-01-24T08:34:41;12.50;76.80
51811;DHT22;52468;40.116;18.296;2023-01-24T08:37:09;12.70;76.60
51811;DHT22;52468;40.116;18.296;2023-01-24T08:39:37;12.80;75.50
51811;DHT22;52468;40.116;18.296;2023-01-24T08:42:04;13.00;76.10
51811;DHT22;52468;40.116;18.296;2023-01-24T08:44:32;13.10;75.80
51811;DHT22;52468;40.116;18.296;2023-01-24T08:47:00;13.30;76.40
51811;DHT22;52468;40.116;18.296;2023-01-24T08:49:28;13.50;74.60
51811;DHT22;52468;40.116;18.296;2023-01-24T08:51:56;13.60;75.40
51811;DHT22;52468;40.116;18.296;2023-01-24T08:54:30;13.70;74.00
51811;DHT22;52468;40.116;18.296;2023-01-24T08:57:00;13.80;72.30
51811;DHT22;52468;40.116;18.296;2023-01-24T08:59:28;13.80;72.00
51811;DHT22;52468;40.116;18.296;2023-01-24T09:01:55;13.70;71.00
51811;DHT22;52468;40.116;18.296;2023-01-24T09:04:23;13.70;69.90
51811;DHT22;52468;40.116;18.296;2023-01-24T09:06:53;13.80;69.40
51811;DHT22;52468;40.116;18.296;2023-01-24T09:09:21;14.00;71.10
51811;DHT22;52468;40.116;18.296;2023-01-24T09:11:49;14.10;70.00
51811;DHT22;52468;40.116;18.296;2023-01-24T09:14:17;14.20;70.30
51811;DHT22;52468;40.116;18.296;2023-01-24T09:16:45;14.40;70.10
51811;DHT22;52468;40.116;18.296;2023-01-24T09:19:13;14.60;70.70
51811;DHT22;52468;40.116;18.296;2023-01-24T09:21:41;14.70;69.50
51811;DHT22;52468;40.116;18.296;2023-01-24T09:24:08;14.80;70.60
51811;DHT22;52468;40.116;18.296;2023-01-24T09:26:36;14.90;69.90
51811;DHT22;52468;40.116;18.296;2023-01-24T09:29:04;15.00;69.50
51811;DHT22;52468;40.116;18.296;2023-01-24T09:31:32;15.10;70.20
51811;DHT22;52468;40.116;18.296;2023-01-24T09:34:00;15.10;69.60
51811;DHT22;52468;40.116;18.296;2023-01-24T09:36:28;15.10;67.70
51811;DHT22;52468;40.116;18.296;2023-01-24T09:38:57;15.20;68.80
51811;DHT22;52468;40.116;18.296;2023-01-24T09:44:53;15.30;67.20
51811;DHT22;52468;40.116;18.296;2023-01-24T09:47:37;15.50;67.70
51811;DHT22;52468;40.116;18.296;2023-01-24T09:50:15;15.60;68.30
51811;DHT22;52468;40.116;18.296;2023-01-24T09:52:47;15.80;67.40
51811;DHT22;52468;40.116;18.296;2023-01-24T09:55:23;16.00;67.60
51811;DHT22;52468;40.116;18.296;2023-01-24T09:58:02;16.10;64.60
51811;DHT22;52468;40.116;18.296;2023-01-24T10:00:36;16.30;65.20
51811;DHT22;52468;40.116;18.296;2023-01-24T10:03:34;16.40;64.10
51811;DHT22;52468;40.116;18.296;2023-01-24T10:06:22;16.50;60.40
51811;DHT22;52468;40.116;18.296;2023-01-24T10:25:51;16.90;55.10
51811;DHT22;52468;40.116;18.296;2023-01-24T10:28:30;16.80;53.40
51811;DHT22;52468;40.116;18.296;2023-01-24T10:31:11;16.80;52.40
51811;DHT22;52468;40.116;18.296;2023-01-24T10:33:51;16.70;52.60
51811;DHT22;52468;40.116;18.296;2023-01-24T10:36:33;16.90;54.00
51811;DHT22;52468;40.116;18.296;2023-01-24T10:39:02;17.00;54.60
51811;DHT22;52468;40.116;18.296;2023-01-24T10:41:31;17.20;55.70
51811;DHT22;52468;40.116;18.296;2023-01-24T10:44:03;17.50;56.00
51811;DHT22;52468;40.116;18.296;2023-01-24T10:49:27;17.80;53.20
51811;DHT22;52468;40.116;18.296;2023-01-24T10:52:14;17.90;51.90
51811;DHT22;52468;40.116;18.296;2023-01-24T10:57:18;18.50;49.90
51811;DHT22;52468;40.116;18.296;2023-01-24T10:59:47;18.60;48.30
51811;DHT22;52468;40.116;18.296;2023-01-24T11:02:23;18.60;45.30
51811;DHT22;52468;40.116;18.296;2023-01-24T11:05:04;18.70;46.70
51811;DHT22;52468;40.116;18.296;2023-01-24T11:07:34;18.90;46.00
51811;DHT22;52468;40.116;18.296;2023-01-24T11:10:26;19.10;45.50
51811;DHT22;52468;40.116;18.296;2023-01-24T11:13:00;19.30;43.60
51811;DHT22;52468;40.116;18.296;2023-01-24T11:15:32;19.50;43.60
51811;DHT22;52468;40.116;18.296;2023-01-24T11:18:11;19.60;43.80
51811;DHT22;52468;40.116;18.296;2023-01-24T11:20:40;19.40;42.60
51811;DHT22;52468;40.116;18.296;2023-01-24T11:23:20;19.10;42.80
51811;DHT22;52468;40.116;18.296;2023-01-24T11:25:55;19.30;43.20
51811;DHT22;52468;40.116;18.296;2023-01-24T11:30:58;19.20;43.70
51811;DHT22;52468;40.116;18.296;2023-01-24T11:33:39;19.60;42.50
51811;DHT22;52468;40.116;18.296;2023-01-24T11:39:54;19.90;40.40
51811;DHT22;52468;40.116;18.296;2023-01-24T11:48:09;20.10;43.90
51811;DHT22;52468;40.116;18.296;2023-01-24T11:53:48;19.80;44.70
51811;DHT22;52468;40.116;18.296;2023-01-24T11:56:42;19.60;45.80
51811;DHT22;52468;40.116;18.296;2023-01-24T12:02:51;19.10;46.80
51811;DHT22;52468;40.116;18.296;2023-01-24T12:05:40;18.80;47.70
51811;DHT22;52468;40.116;18.296;2023-01-24T12:08:46;18.50;49.10
51811;DHT22;52468;40.116;18.296;2023-01-24T12:17:13;18.50;49.70
51811;DHT22;52468;40.116;18.296;2023-01-24T12:25:42;18.50;49.90
51811;DHT22;52468;40.116;18.296;2023-01-24T12:28:37;18.30;50.40
51811;DHT22;52468;40.116;18.296;2023-01-24T12:31:03;18.20;50.20
51811;DHT22;52468;40.116;18.296;2023-01-24T12:33:40;18.00;49.10
51811;DHT22;52468;40.116;18.296;2023-01-24T12:36:18;17.50;48.40
51811;DHT22;52468;40.116;18.296;2023-01-24T12:38:52;17.40;48.40
51811;DHT22;52468;40.116;18.296;2023-01-24T12:41:32;17.30;48.20
51811;DHT22;52468;40.116;18.296;2023-01-24T12:50:07;16.60;49.40
51811;DHT22;52468;40.116;18.296;2023-01-24T12:53:01;16.50;51.00
51811;DHT22;52468;40.116;18.296;2023-01-24T12:55:37;16.40;51.80
51811;DHT22;52468;40.116;18.296;2023-01-24T12:58:21;16.50;52.40
51811;DHT22;52468;40.116;18.296;2023-01-24T13:01:07;16.40;52.50
51811;DHT22;52468;40.116;18.296;2023-01-24T13:06:43;16.40;53.90
51811;DHT22;52468;40.116;18.296;2023-01-24T13:09:28;16.60;53.30
51811;DHT22;52468;40.116;18.296;2023-01-24T13:12:01;16.90;52.60
51811;DHT22;52468;40.116;18.296;2023-01-24T13:14:38;17.10;52.10
51811;DHT22;52468;40.116;18.296;2023-01-24T13:23:06;17.40;50.90
51811;DHT22;52468;40.116;18.296;2023-01-24T13:29:01;17.10;51.20
51811;DHT22;52468;40.116;18.296;2023-01-24T13:34:27;17.20;50.60
51811;DHT22;52468;40.116;18.296;2023-01-24T13:36:57;17.00;50.00
51811;DHT22;52468;40.116;18.296;2023-01-24T13:39:30;17.20;49.60
51811;DHT22;52468;40.116;18.296;2023-01-24T13:42:32;17.20;48.70
51811;DHT22;52468;40.116;18.296;2023-01-24T13:47:51;16.80;48.70
51811;DHT22;52468;40.116;18.296;2023-01-24T13:50:23;16.60;49.30
51811;DHT22;52468;40.116;18.296;2023-01-24T13:52:55;16.30;49.60
51811;DHT22;52468;40.116;18.296;2023-01-24T14:00:27;16.40;52.60
51811;DHT22;52468;40.116;18.296;2023-01-24T14:24:24;15.00;56.40
51811;DHT22;52468;40.116;18.296;2023-01-24T14:26:55;15.10;56.60
51811;DHT22;52468;40.116;18.296;2023-01-24T14:29:38;15.00;56.10
51811;DHT22;52468;40.116;18.296;2023-01-24T14:32:30;14.60;56.50
51811;DHT22;52468;40.116;18.296;2023-01-24T14:37:42;14.70;57.20
51811;DHT22;52468;40.116;18.296;2023-01-24T14:40:20;14.80;57.30
51811;DHT22;52468;40.116;18.296;2023-01-24T14:42:59;14.60;57.80
51811;DHT22;52468;40.116;18.296;2023-01-24T14:45:30;14.50;58.30
51811;DHT22;52468;40.116;18.296;2023-01-24T14:47:59;14.40;59.50
51811;DHT22;52468;40.116;18.296;2023-01-24T14:50:33;14.30;59.60
51811;DHT22;52468;40.116;18.296;2023-01-24T14:53:21;14.20;60.30
51811;DHT22;52468;40.116;18.296;2023-01-24T14:55:55;14.30;60.10
51811;DHT22;52468;40.116;18.296;2023-01-24T14:58:28;14.20;60.80
51811;DHT22;52468;40.116;18.296;2023-01-24T15:00:57;14.20;61.10
51811;DHT22;52468;40.116;18.296;2023-01-24T15:03:31;14.00;61.70
51811;DHT22;52468;40.116;18.296;2023-01-24T15:06:00;14.00;62.00
51811;DHT22;52468;40.116;18.296;2023-01-24T15:08:29;14.00;62.10
51811;DHT22;52468;40.116;18.296;2023-01-24T15:11:05;13.90;62.70
51811;DHT22;52468;40.116;18.296;2023-01-24T15:13:34;13.80;62.80
51811;DHT22;52468;40.116;18.296;2023-01-24T15:16:04;13.70;63.60
51811;DHT22;52468;40.116;18.296;2023-01-24T15:18:42;13.70;63.50
51811;DHT22;52468;40.116;18.296;2023-01-24T15:21:19;13.80;63.30
51811;DHT22;52468;40.116;18.296;2023-01-24T15:23:51;13.70;63.50
51811;DHT22;52468;40.116;18.296;2023-01-24T15:40:29;13.30;65.30
51811;DHT22;52468;40.116;18.296;2023-01-24T15:42:58;13.20;66.00
51811;DHT22;52468;40.116;18.296;2023-01-24T15:45:49;13.10;65.90
51811;DHT22;52468;40.116;18.296;2023-01-24T15:48:22;13.10;66.00
51811;DHT22;52468;40.116;18.296;2023-01-24T15:50:54;13.00;66.20
51811;DHT22;52468;40.116;18.296;2023-01-24T15:53:38;12.90;66.40
51811;DHT22;52468;40.116;18.296;2023-01-24T15:56:20;12.90;66.50
51811;DHT22;52468;40.116;18.296;2023-01-24T15:58:49;12.70;67.30
51811;DHT22;52468;40.116;18.296;2023-01-24T16:01:17;12.60;67.80
51811;DHT22;52468;40.116;18.296;2023-01-24T16:03:46;12.50;67.90
51811;DHT22;52468;40.116;18.296;2023-01-24T16:06:14;12.50;68.20
51811;DHT22;52468;40.116;18.296;2023-01-24T16:08:41;12.40;68.60
51811;DHT22;52468;40.116;18.296;2023-01-24T16:11:11;12.40;68.70
51811;DHT22;52468;40.116;18.296;2023-01-24T16:13:40;12.30;69.00
51811;DHT22;52468;40.116;18.296;2023-01-24T16:16:12;12.20;69.00
51811;DHT22;52468;40.116;18.296;2023-01-24T16:18:41;12.10;69.60
51811;DHT22;52468;40.116;18.296;2023-01-24T16:21:09;12.00;69.90
51811;DHT22;52468;40.116;18.296;2023-01-24T16:23:37;12.00;70.10
51811;DHT22;52468;40.116;18.296;2023-01-24T16:26:05;11.90;70.60
51811;DHT22;52468;40.116;18.296;2023-01-24T16:28:35;11.90;70.30
51811;DHT22;52468;40.116;18.296;2023-01-24T16:31:03;11.80;70.60
51811;DHT22;52468;40.116;18.296;2023-01-24T16:33:31;11.80;70.40
51811;DHT22;52468;40.116;18.296;2023-01-24T16:35:59;11.80;70.80
51811;DHT22;52468;40.116;18.296;2023-01-24T16:38:27;11.80;71.10
51811;DHT22;52468;40.116;18.296;2023-01-24T16:40:55;11.70;71.20
51811;DHT22;52468;40.116;18.296;2023-01-24T16:43:23;11.70;71.10
51811;DHT22;52468;40.116;18.296;2023-01-24T16:45:52;11.70;71.10
51811;DHT22;52468;40.116;18.296;2023-01-24T16:48:20;11.60;71.20
51811;DHT22;52468;40.116;18.296;2023-01-24T16:50:47;11.60;71.30
51811;DHT22;52468;40.116;18.296;2023-01-24T16:53:15;11.60;71.50
51811;DHT22;52468;40.116;18.296;2023-01-24T16:55:43;11.60;71.40
51811;DHT22;52468;40.116;18.296;2023-01-24T16:58:11;11.50;71.40
51811;DHT22;52468;40.116;18.296;2023-01-24T17:00:40;11.50;71.60
51811;DHT22;52468;40.116;18.296;2023-01-24T17:03:09;11.50;71.80
51811;DHT22;52468;40.116;18.296;2023-01-24T17:05:38;11.30;72.00
51811;DHT22;52468;40.116;18.296;2023-01-24T17:08:10;11.30;72.00
51811;DHT22;52468;40.116;18.296;2023-01-24T17:10:40;11.30;72.00
51811;DHT22;52468;40.116;18.296;2023-01-24T17:13:09;11.30;72.10
51811;DHT22;52468;40.116;18.296;2023-01-24T17:15:38;11.30;72.10
51811;DHT22;52468;40.116;18.296;2023-01-24T17:18:06;11.30;72.20
51811;DHT22;52468;40.116;18.296;2023-01-24T17:20:34;11.20;72.20
51811;DHT22;52468;40.116;18.296;2023-01-24T17:23:02;11.20;72.40
51811;DHT22;52468;40.116;18.296;2023-01-24T17:25:31;11.10;72.50
51811;DHT22;52468;40.116;18.296;2023-01-24T17:27:58;11.10;72.60
51811;DHT22;52468;40.116;18.296;2023-01-24T17:30:26;11.00;72.60
51811;DHT22;52468;40.116;18.296;2023-01-24T17:32:54;11.00;72.90
51811;DHT22;52468;40.116;18.296;2023-01-24T17:35:22;11.00;72.90
51811;DHT22;52468;40.116;18.296;2023-01-24T17:37:50;10.90;73.10
51811;DHT22;52468;40.116;18.296;2023-01-24T17:40:17;10.90;73.20
51811;DHT22;52468;40.116;18.296;2023-01-24T17:42:45;10.90;73.30
51811;DHT22;52468;40.116;18.296;2023-01-24T17:45:13;10.80;73.40
51811;DHT22;52468;40.116;18.296;2023-01-24T17:47:41;10.80;73.50
51811;DHT22;52468;40.116;18.296;2023-01-24T17:50:09;10.80;73.40
51811;DHT22;52468;40.116;18.296;2023-01-24T17:52:37;10.80;73.40
51811;DHT22;52468;40.116;18.296;2023-01-24T17:55:05;10.80;73.50
51811;DHT22;52468;40.116;18.296;2023-01-24T17:57:33;10.80;73.40
51811;DHT22;52468;40.116;18.296;2023-01-24T18:00:02;10.70;73.60
51811;DHT22;52468;40.116;18.296;2023-01-24T18:02:38;10.60;73.60
51811;DHT22;52468;40.116;18.296;2023-01-24T18:05:06;10.60;73.50
51811;DHT22;52468;40.116;18.296;2023-01-24T18:07:34;10.60;73.60
51811;DHT22;52468;40.116;18.296;2023-01-24T18:10:02;10.50;73.80
51811;DHT22;52468;40.116;18.296;2023-01-24T18:12:30;10.50;74.00